sensor_id;sensor_type;location;lat;lon;timestamp;pressure;altitude;pressure_sealevel;temperature;humidity
14966;BME280;7577;45.226;5.798;2022-11-14T00:01:56;98228.56;;;8.68;100.00
14966;BME280;7577;45.226;5.798;2022-11-14T00:07:14;98221.77;;;8.70;100.00
14966;BME280;7577;45.226;5.798;2022-11-14T00:18:49;98219.34;;;9.01;100.00
14966;BME280;7577;45.226;5.798;2022-11-14T00:21:26;98213.34;;;9.02;100.00
14966;BME280;7577;45.226;5.798;2022-11-14T00:24:03;98214.72;;;9.07;100.00
14966;BME280;7577;45.226;5.798;2022-11-14T00:29:17;98193.52;;;9.11;100.00
14966;BME280;7577;45.226;5.798;2022-11-14T00:31:48;98195.15;;;9.07;100.00
14966;BME280;7577;45.226;5.798;2022-11-14T00:34:18;98196.77;;;9.11;100.00
14966;BME280;7577;45.226;5.798;2022-11-14T00:39:38;98180.19;;;9.17;100.00
14966;BME280;7577;45.226;5.798;2022-11-14T00:42:08;98178.05;;;9.07;100.00
14966;BME280;7577;45.226;5.798;2022-11-14T00:44:38;98181.30;;;9.11;100.00
14966;BME280;7577;45.226;5.798;2022-11-14T00:47:10;98176.41;;;9.16;100.00
14966;BME280;7577;45.226;5.798;2022-11-14T00:49:41;98174.50;;;9.14;100.00
14966;BME280;7577;45.226;5.798;2022-11-14T00:54:52;98169.08;;;9.06;100.00
14966;BME280;7577;45.226;5.798;2022-11-14T00:57:26;98162.81;;;9.11;100.00
14966;BME280;7577;45.226;5.798;2022-11-14T01:00:05;98163.38;;;8.98;100.00
14966;BME280;7577;45.226;5.798;2022-11-14T01:02:36;98162.31;;;8.99;100.00
14966;BME280;7577;45.226;5.798;2022-11-14T01:05:07;98156.87;;;9.04;100.00
14966;BME280;7577;45.226;5.798;2022-11-14T01:13:07;98147.88;;;9.18;100.00
14966;BME280;7577;45.226;5.798;2022-11-14T01:15:41;98150.59;;;9.23;100.00
14966;BME280;7577;45.226;5.798;2022-11-14T01:18:14;98151.09;;;9.30;100.00
14966;BME280;7577;45.226;5.798;2022-11-14T01:20:53;98153.23;;;9.43;100.00
14966;BME280;7577;45.226;5.798;2022-11-14T01:23:23;98149.94;;;9.54;100.00
14966;BME280;7577;45.226;5.798;2022-11-14T01:26:02;98139.31;;;9.65;100.00
14966;BME280;7577;45.226;5.798;2022-11-14T01:28:33;98147.43;;;9.72;100.00
14966;BME280;7577;45.226;5.798;2022-11-14T01:31:12;98141.94;;;9.82;100.00
14966;BME280;7577;45.226;5.798;2022-11-14T01:33:45;98149.73;;;10.04;100.00
14966;BME280;7577;45.226;5.798;2022-11-14T01:36:19;98142.09;;;10.11;100.00
14966;BME280;7577;45.226;5.798;2022-11-14T01:41:44;98141.40;;;10.36;100.00
14966;BME280;7577;45.226;5.798;2022-11-14T01:44:17;98142.46;;;10.40;100.00
14966;BME280;7577;45.226;5.798;2022-11-14T01:49:36;98132.62;;;10.47;100.00
14966;BME280;7577;45.226;5.798;2022-11-14T01:52:18;98137.80;;;10.43;100.00
14966;BME280;7577;45.226;5.798;2022-11-14T01:54:58;98138.88;;;10.45;100.00
14966;BME280;7577;45.226;5.798;2022-11-14T01:57:32;98136.17;;;10.42;100.00
14966;BME280;7577;45.226;5.798;2022-11-14T02:00:27;98132.64;;;10.39;100.00
14966;BME280;7577;45.226;5.798;2022-11-14T02:05:38;98123.50;;;10.25;100.00
14966;BME280;7577;45.226;5.798;2022-11-14T02:08:10;98123.50;;;10.25;100.00
14966;BME280;7577;45.226;5.798;2022-11-14T02:13:25;98115.84;;;10.32;100.00
14966;BME280;7577;45.226;5.798;2022-11-14T02:15:55;98119.28;;;10.45;100.00
14966;BME280;7577;45.226;5.798;2022-11-14T02:18:26;98111.86;;;10.56;100.00
14966;BME280;7577;45.226;5.798;2022-11-14T02:20:56;98115.80;;;10.71;100.00
14966;BME280;7577;45.226;5.798;2022-11-14T02:23:29;98112.44;;;10.81;100.00
14966;BME280;7577;45.226;5.798;2022-11-14T02:26:00;98107.20;;;10.87;100.00
14966;BME280;7577;45.226;5.798;2022-11-14T02:28:30;98113.11;;;10.97;100.00
14966;BME280;7577;45.226;5.798;2022-11-14T02:31:04;98106.13;;;11.12;100.00
14966;BME280;7577;45.226;5.798;2022-11-14T02:33:34;98106.64;;;11.16;100.00
14966;BME280;7577;45.226;5.798;2022-11-14T02:36:08;98103.26;;;11.27;98.23
14966;BME280;7577;45.226;5.798;2022-11-14T02:38:39;98099.46;;;11.49;95.78
14966;BME280;7577;45.226;5.798;2022-11-14T02:41:09;98099.00;;;11.65;91.92
14966;BME280;7577;45.226;5.798;2022-11-14T02:43:40;98101.23;;;11.82;90.17
14966;BME280;7577;45.226;5.798;2022-11-14T02:46:10;98094.34;;;11.89;89.89
14966;BME280;7577;45.226;5.798;2022-11-14T02:48:40;98092.89;;;12.13;86.22
14966;BME280;7577;45.226;5.798;2022-11-14T02:51:10;98096.77;;;12.09;88.67
14966;BME280;7577;45.226;5.798;2022-11-14T02:53:43;98098.42;;;12.08;87.14
14966;BME280;7577;45.226;5.798;2022-11-14T02:58:59;98093.48;;;11.70;91.34
14966;BME280;7577;45.226;5.798;2022-11-14T03:04:36;98090.23;;;11.21;97.77
14966;BME280;7577;45.226;5.798;2022-11-14T03:09:47;98089.84;;;11.07;99.09
14966;BME280;7577;45.226;5.798;2022-11-14T03:12:18;98093.08;;;11.11;99.52
14966;BME280;7577;45.226;5.798;2022-11-14T03:14:58;98092.73;;;11.18;98.55
14966;BME280;7577;45.226;5.798;2022-11-14T03:17:31;98094.13;;;11.15;97.94
14966;BME280;7577;45.226;5.798;2022-11-14T03:22:46;98094.52;;;11.27;98.06
14966;BME280;7577;45.226;5.798;2022-11-14T03:25:16;98094.80;;;11.28;98.46
14966;BME280;7577;45.226;5.798;2022-11-14T03:27:53;98101.64;;;11.26;97.08
14966;BME280;7577;45.226;5.798;2022-11-14T03:30:29;98101.50;;;11.12;96.63
14966;BME280;7577;45.226;5.798;2022-11-14T03:33:00;98093.11;;;11.09;95.97
14966;BME280;7577;45.226;5.798;2022-11-14T03:35:41;98096.59;;;11.12;96.69
14966;BME280;7577;45.226;5.798;2022-11-14T03:41:42;98090.06;;;11.13;99.22
14966;BME280;7577;45.226;5.798;2022-11-14T03:50:23;98091.31;;;10.97;98.68
14966;BME280;7577;45.226;5.798;2022-11-14T03:53:07;98091.95;;;10.86;100.00
14966;BME280;7577;45.226;5.798;2022-11-14T03:58:19;98085.41;;;10.87;100.00
14966;BME280;7577;45.226;5.798;2022-11-14T04:00:51;98085.84;;;10.71;100.00
14966;BME280;7577;45.226;5.798;2022-11-14T04:21:41;98081.68;;;10.78;100.00
14966;BME280;7577;45.226;5.798;2022-11-14T04:24:42;98080.50;;;10.89;100.00
14966;BME280;7577;45.226;5.798;2022-11-14T04:40:51;98071.93;;;11.01;98.22
14966;BME280;7577;45.226;5.798;2022-11-14T04:43:35;98082.06;;;10.95;99.50
14966;BME280;7577;45.226;5.798;2022-11-14T04:46:23;98074.91;;;11.02;98.84
14966;BME280;7577;45.226;5.798;2022-11-14T05:09:41;98083.58;;;11.30;96.14
14966;BME280;7577;45.226;5.798;2022-11-14T06:04:14;98086.56;;;10.81;100.00
14966;BME280;7577;45.226;5.798;2022-11-14T06:24:07;98099.97;;;10.73;100.00
14966;BME280;7577;45.226;5.798;2022-11-14T06:26:34;98104.72;;;10.60;100.00
14966;BME280;7577;45.226;5.798;2022-11-14T06:29:27;98105.52;;;10.63;100.00
14966;BME280;7577;45.226;5.798;2022-11-14T06:32:15;98104.72;;;10.62;100.00
14966;BME280;7577;45.226;5.798;2022-11-14T06:40:13;98105.33;;;10.54;100.00
14966;BME280;7577;45.226;5.798;2022-11-14T06:46:02;98104.83;;;10.47;100.00
14966;BME280;7577;45.226;5.798;2022-11-14T06:48:43;98109.19;;;10.46;100.00
14966;BME280;7577;45.226;5.798;2022-11-14T06:51:25;98116.28;;;10.47;100.00
14966;BME280;7577;45.226;5.798;2022-11-14T07:05:28;98120.60;;;10.50;100.00
14966;BME280;7577;45.226;5.798;2022-11-14T15:55:42;97978.03;;;14.67;54.95
14966;BME280;7577;45.226;5.798;2022-11-14T15:58:31;97971.80;;;14.53;60.40
14966;BME280;7577;45.226;5.798;2022-11-14T16:14:51;97979.02;;;13.94;64.70
14966;BME280;7577;45.226;5.798;2022-11-14T16:17:27;97971.78;;;13.76;65.01
14966;BME280;7577;45.226;5.798;2022-11-14T16:20:12;97982.20;;;13.74;65.55
14966;BME280;7577;45.226;5.798;2022-11-14T16:22:58;97986.08;;;13.48;65.56
14966;BME280;7577;45.226;5.798;2022-11-14T16:25:31;97987.86;;;13.42;65.90
14966;BME280;7577;45.226;5.798;2022-11-14T16:31:22;97979.30;;;13.46;66.72
14966;BME280;7577;45.226;5.798;2022-11-14T16:37:16;97988.52;;;13.36;70.27
14966;BME280;7577;45.226;5.798;2022-11-14T16:39:54;97990.70;;;13.23;67.92
14966;BME280;7577;45.226;5.798;2022-11-14T16:45:42;97999.55;;;13.18;70.51
14966;BME280;7577;45.226;5.798;2022-11-14T17:10:05;98002.11;;;13.01;68.67
14966;BME280;7577;45.226;5.798;2022-11-14T17:15:18;98005.19;;;13.10;70.56
14966;BME280;7577;45.226;5.798;2022-11-14T17:17:48;98006.80;;;13.11;70.84
14966;BME280;7577;45.226;5.798;2022-11-14T17:54:07;98010.52;;;13.69;65.19
14966;BME280;7577;45.226;5.798;2022-11-14T17:56:37;98014.69;;;13.78;64.86
14966;BME280;7577;45.226;5.798;2022-11-14T17:59:08;98014.63;;;13.80;65.95
14966;BME280;7577;45.226;5.798;2022-11-14T18:14:55;98028.25;;;13.83;73.97
14966;BME280;7577;45.226;5.798;2022-11-14T18:20:08;98028.24;;;13.72;78.34
14966;BME280;7577;45.226;5.798;2022-11-14T18:22:48;98029.20;;;13.65;78.38
14966;BME280;7577;45.226;5.798;2022-11-14T18:25:28;98024.91;;;13.61;81.50
14966;BME280;7577;45.226;5.798;2022-11-14T18:28:13;98022.05;;;13.55;80.45
14966;BME280;7577;45.226;5.798;2022-11-14T18:31:05;98028.77;;;13.47;84.00
14966;BME280;7577;45.226;5.798;2022-11-14T18:33:39;98023.25;;;13.49;84.00
14966;BME280;7577;45.226;5.798;2022-11-14T18:44:19;98028.47;;;13.35;87.20
14966;BME280;7577;45.226;5.798;2022-11-14T18:46:51;98032.92;;;13.31;86.97
14966;BME280;7577;45.226;5.798;2022-11-14T18:49:22;98036.97;;;13.33;87.24
14966;BME280;7577;45.226;5.798;2022-11-14T18:57:38;98053.71;;;13.32;91.47
14966;BME280;7577;45.226;5.798;2022-11-14T19:00:10;98053.71;;;13.32;92.43
14966;BME280;7577;45.226;5.798;2022-11-14T19:02:42;98060.03;;;13.16;95.25
14966;BME280;7577;45.226;5.798;2022-11-14T19:07:57;98074.30;;;13.13;94.67
14966;BME280;7577;45.226;5.798;2022-11-14T19:10:28;98077.06;;;12.95;96.14
14966;BME280;7577;45.226;5.798;2022-11-14T19:16:06;98090.85;;;13.06;98.47
14966;BME280;7577;45.226;5.798;2022-11-14T19:18:36;98096.20;;;12.95;97.35
14966;BME280;7577;45.226;5.798;2022-11-14T19:21:07;98109.17;;;12.87;100.00
14966;BME280;7577;45.226;5.798;2022-11-14T19:23:38;98116.14;;;12.79;100.00
14966;BME280;7577;45.226;5.798;2022-11-14T19:26:09;98119.13;;;12.80;100.00
14966;BME280;7577;45.226;5.798;2022-11-14T19:28:45;98116.44;;;12.78;100.00
14966;BME280;7577;45.226;5.798;2022-11-14T19:31:17;98120.04;;;12.76;100.00
14966;BME280;7577;45.226;5.798;2022-11-14T19:36:31;98115.67;;;12.59;100.00
14966;BME280;7577;45.226;5.798;2022-11-14T19:39:02;98119.03;;;12.53;100.00
14966;BME280;7577;45.226;5.798;2022-11-14T19:41:35;98123.21;;;12.48;100.00
14966;BME280;7577;45.226;5.798;2022-11-14T19:44:07;98126.27;;;12.44;100.00
14966;BME280;7577;45.226;5.798;2022-11-14T19:46:46;98125.77;;;12.42;100.00
14966;BME280;7577;45.226;5.798;2022-11-14T19:49:16;98127.93;;;12.43;100.00
14966;BME280;7577;45.226;5.798;2022-11-14T19:51:46;98123.66;;;12.37;100.00
14966;BME280;7577;45.226;5.798;2022-11-14T19:59:53;98124.28;;;12.50;100.00
14966;BME280;7577;45.226;5.798;2022-11-14T20:05:08;98118.00;;;12.49;100.00
14966;BME280;7577;45.226;5.798;2022-11-14T20:07:38;98110.09;;;12.48;100.00
14966;BME280;7577;45.226;5.798;2022-11-14T20:10:09;98107.08;;;12.49;100.00
14966;BME280;7577;45.226;5.798;2022-11-14T20:12:39;98109.22;;;12.52;100.00
14966;BME280;7577;45.226;5.798;2022-11-14T20:15:18;98101.77;;;12.58;100.00
14966;BME280;7577;45.226;5.798;2022-11-14T20:17:48;98097.84;;;12.45;100.00
14966;BME280;7577;45.226;5.798;2022-11-14T20:20:19;98100.91;;;12.44;100.00
14966;BME280;7577;45.226;5.798;2022-11-14T20:22:49;98093.46;;;12.47;100.00
14966;BME280;7577;45.226;5.798;2022-11-14T20:25:19;98083.52;;;12.53;100.00
14966;BME280;7577;45.226;5.798;2022-11-14T20:27:52;98086.21;;;12.56;100.00
14966;BME280;7577;45.226;5.798;2022-11-14T20:30:24;98085.47;;;12.53;100.00
14966;BME280;7577;45.226;5.798;2022-11-14T20:32:54;98084.05;;;12.55;100.00
14966;BME280;7577;45.226;5.798;2022-11-14T20:35:24;98081.91;;;12.52;100.00
14966;BME280;7577;45.226;5.798;2022-11-14T20:37:59;98079.89;;;12.42;100.00
14966;BME280;7577;45.226;5.798;2022-11-14T20:40:29;98082.58;;;12.44;100.00
14966;BME280;7577;45.226;5.798;2022-11-14T20:42:59;98077.70;;;12.41;100.00
14966;BME280;7577;45.226;5.798;2022-11-14T20:45:29;98077.12;;;12.26;100.00
14966;BME280;7577;45.226;5.798;2022-11-14T20:48:00;98076.84;;;12.27;100.00
14966;BME280;7577;45.226;5.798;2022-11-14T20:53:11;98063.14;;;12.30;100.00
14966;BME280;7577;45.226;5.798;2022-11-14T20:55:41;98072.45;;;12.29;100.00
14966;BME280;7577;45.226;5.798;2022-11-14T20:58:11;98063.77;;;12.27;100.00
14966;BME280;7577;45.226;5.798;2022-11-14T21:00:41;98054.25;;;12.24;100.00
14966;BME280;7577;45.226;5.798;2022-11-14T21:03:11;98063.02;;;12.21;100.00
14966;BME280;7577;45.226;5.798;2022-11-14T21:05:46;98049.59;;;12.06;100.00
14966;BME280;7577;45.226;5.798;2022-11-14T21:11:01;98043.84;;;12.08;100.00
14966;BME280;7577;45.226;5.798;2022-11-14T21:16:16;98031.30;;;12.07;100.00
14966;BME280;7577;45.226;5.798;2022-11-14T21:21:33;98028.62;;;11.86;100.00
14966;BME280;7577;45.226;5.798;2022-11-14T21:24:04;98026.13;;;11.89;100.00
14966;BME280;7577;45.226;5.798;2022-11-14T21:26:37;98014.35;;;11.91;100.00
14966;BME280;7577;45.226;5.798;2022-11-14T21:31:51;98010.34;;;11.86;100.00
14966;BME280;7577;45.226;5.798;2022-11-14T21:37:05;98004.18;;;11.78;100.00
14966;BME280;7577;45.226;5.798;2022-11-14T21:39:36;97998.27;;;11.71;100.00
14966;BME280;7577;45.226;5.798;2022-11-14T21:42:06;98011.83;;;11.79;100.00
14966;BME280;7577;45.226;5.798;2022-11-14T21:44:36;98004.39;;;11.82;100.00
14966;BME280;7577;45.226;5.798;2022-11-14T21:47:06;98009.67;;;11.76;100.00
14966;BME280;7577;45.226;5.798;2022-11-14T21:52:18;97996.82;;;11.79;100.00
14966;BME280;7577;45.226;5.798;2022-11-14T21:54:48;98005.30;;;11.77;100.00
14966;BME280;7577;45.226;5.798;2022-11-14T21:57:18;98009.09;;;11.79;100.00
14966;BME280;7577;45.226;5.798;2022-11-14T21:59:49;98006.25;;;11.86;100.00
14966;BME280;7577;45.226;5.798;2022-11-14T22:02:19;98001.12;;;11.82;100.00
14966;BME280;7577;45.226;5.798;2022-11-14T22:07:55;98005.34;;;11.91;100.00
14966;BME280;7577;45.226;5.798;2022-11-14T22:13:06;98005.70;;;11.87;100.00
14966;BME280;7577;45.226;5.798;2022-11-14T22:15:36;98002.78;;;11.81;100.00
14966;BME280;7577;45.226;5.798;2022-11-14T22:20:54;98006.45;;;11.90;100.00
14966;BME280;7577;45.226;5.798;2022-11-14T22:26:08;97998.64;;;12.02;100.00
14966;BME280;7577;45.226;5.798;2022-11-14T22:28:40;98013.40;;;12.01;100.00
14966;BME280;7577;45.226;5.798;2022-11-14T22:33:59;97994.99;;;12.09;100.00
14966;BME280;7577;45.226;5.798;2022-11-14T22:36:29;97996.65;;;12.07;100.00
14966;BME280;7577;45.226;5.798;2022-11-14T22:39:01;97996.31;;;12.11;100.00
14966;BME280;7577;45.226;5.798;2022-11-14T22:41:32;97996.41;;;12.04;100.00
14966;BME280;7577;45.226;5.798;2022-11-14T22:44:02;97989.22;;;11.94;100.00
14966;BME280;7577;45.226;5.798;2022-11-14T22:49:13;97982.14;;;12.09;100.00
14966;BME280;7577;45.226;5.798;2022-11-14T22:51:43;97985.69;;;12.10;100.00
14966;BME280;7577;45.226;5.798;2022-11-14T22:54:14;97987.84;;;12.10;100.00
14966;BME280;7577;45.226;5.798;2022-11-14T22:59:28;97977.69;;;11.97;100.00
14966;BME280;7577;45.226;5.798;2022-11-14T23:01:58;97982.72;;;12.06;100.00
14966;BME280;7577;45.226;5.798;2022-11-14T23:07:08;97981.97;;;12.03;100.00
14966;BME280;7577;45.226;5.798;2022-11-14T23:12:24;97982.39;;;12.10;100.00
14966;BME280;7577;45.226;5.798;2022-11-14T23:14:55;97973.95;;;12.09;100.00
14966;BME280;7577;45.226;5.798;2022-11-14T23:17:29;97976.14;;;12.10;100.00
14966;BME280;7577;45.226;5.798;2022-11-14T23:19:59;97971.42;;;12.13;100.00
14966;BME280;7577;45.226;5.798;2022-11-14T23:22:29;97975.76;;;12.16;100.00
14966;BME280;7577;45.226;5.798;2022-11-14T23:24:59;97977.50;;;12.10;100.00
14966;BME280;7577;45.226;5.798;2022-11-14T23:27:30;97981.11;;;12.05;100.00
14966;BME280;7577;45.226;5.798;2022-11-14T23:30:01;97975.89;;;12.09;100.00
14966;BME280;7577;45.226;5.798;2022-11-14T23:32:32;97969.61;;;12.08;100.00
14966;BME280;7577;45.226;5.798;2022-11-14T23:35:02;97972.42;;;12.03;100.00
14966;BME280;7577;45.226;5.798;2022-11-14T23:37:33;97967.63;;;11.95;100.00
14966;BME280;7577;45.226;5.798;2022-11-14T23:40:04;97971.84;;;12.04;100.00
14966;BME280;7577;45.226;5.798;2022-11-14T23:42:36;97974.08;;;12.02;100.00
14966;BME280;7577;45.226;5.798;2022-11-14T23:45:07;97969.45;;;12.02;100.00
14966;BME280;7577;45.226;5.798;2022-11-14T23:50:19;97958.80;;;11.85;100.00
14966;BME280;7577;45.226;5.798;2022-11-14T23:55:36;97957.59;;;11.75;100.00
14966;BME280;7577;45.226;5.798;2022-11-14T23:58:07;97951.52;;;11.80;100.00
